createdAt,value
2019-04-10T00:01:28.475Z,6.60
2019-04-10T00:04:29.742Z,6.60
2019-04-10T00:07:31.266Z,6.60
2019-04-10T00:10:32.284Z,6.50
2019-04-10T00:13:32.949Z,6.50
2019-04-10T00:16:34.213Z,6.40
2019-04-10T00:19:35.920Z,6.40
2019-04-10T00:22:38.125Z,6.20
2019-04-10T00:25:39.223Z,6.30
2019-04-10T00:28:41.329Z,6.30
2019-04-10T00:31:42.271Z,6.20
2019-04-10T00:34:42.890Z,6.20
2019-04-10T00:37:47.140Z,6.00
2019-04-10T00:40:46.327Z,6.10
2019-04-10T00:43:55.275Z,6.00
2019-04-10T00:47:04.493Z,6.00
2019-04-10T00:50:14.618Z,6.00
2019-04-10T00:53:23.649Z,6.00
2019-04-10T00:56:32.579Z,6.00
2019-04-10T00:59:42.154Z,5.80
2019-04-10T01:02:51.409Z,5.80
2019-04-10T01:06:01.727Z,5.80
2019-04-10T01:12:40.426Z,5.70
2019-04-10T01:15:49.172Z,5.50
2019-04-10T01:18:49.646Z,5.60
2019-04-10T01:21:50.677Z,5.60
2019-04-10T01:24:52.295Z,5.50
2019-04-10T01:27:53.689Z,5.50
2019-04-10T01:30:54.994Z,5.40
2019-04-10T01:33:56.817Z,5.30
2019-04-10T01:36:58.320Z,5.30
2019-04-10T01:39:59.324Z,5.40
2019-04-10T01:43:08.222Z,5.30
2019-04-10T01:46:04.131Z,5.30
2019-04-10T01:49:05.201Z,5.20
2019-04-10T01:52:06.962Z,5.10
2019-04-10T01:55:17.294Z,5.30
2019-04-10T01:58:12.845Z,5.20
2019-04-10T02:04:54.200Z,5.10
2019-04-10T02:08:08.518Z,5.10
2019-04-10T02:11:13.291Z,5.00
2019-04-10T02:14:22.434Z,4.90
2019-04-10T02:17:25.045Z,5.00
2019-04-10T02:20:27.075Z,4.90
2019-04-10T02:23:28.156Z,4.90
2019-04-10T02:26:29.693Z,4.90
2019-04-10T02:29:31.491Z,4.90
2019-04-10T02:32:32.620Z,4.90
2019-04-10T02:35:34.074Z,4.90
2019-04-10T02:38:49.160Z,4.90
2019-04-10T02:41:38.588Z,4.80
2019-04-10T02:44:41.527Z,4.80
2019-04-10T02:47:43.229Z,4.80
2019-04-10T02:50:44.950Z,4.60
2019-04-10T02:53:46.068Z,4.70
2019-04-10T02:56:47.929Z,4.60
2019-04-10T02:59:51.225Z,4.50
2019-04-10T03:02:52.112Z,4.60
2019-04-10T03:05:54.326Z,4.50
2019-04-10T03:09:07.982Z,4.40
2019-04-10T03:11:57.633Z,4.40
2019-04-10T03:14:59.152Z,4.50
2019-04-10T03:18:00.757Z,4.40
2019-04-10T03:21:01.358Z,4.30
2019-04-10T03:24:02.163Z,4.30
2019-04-10T03:27:03.753Z,4.40
2019-04-10T03:30:05.229Z,4.30
2019-04-10T03:33:29.331Z,4.20
2019-04-10T03:36:37.863Z,4.10
2019-04-10T03:39:39.011Z,4.20
2019-04-10T03:42:39.542Z,4.10
2019-04-10T03:45:41.127Z,4.10
2019-04-10T03:48:42.234Z,4.10
2019-04-10T03:51:43.063Z,4.10
2019-04-10T03:54:43.983Z,4.10
2019-04-10T03:57:44.864Z,4.10
2019-04-10T04:00:46.626Z,4.10
2019-04-10T04:03:47.341Z,4.10
2019-04-10T04:06:48.390Z,4.00
2019-04-10T04:09:49.050Z,3.90
2019-04-10T04:12:49.649Z,3.80
2019-04-10T04:15:50.621Z,3.90
2019-04-10T04:18:51.389Z,3.70
2019-04-10T04:21:52.333Z,3.70
2019-04-10T04:24:53.013Z,3.60
2019-04-10T04:27:53.932Z,3.50
2019-04-10T04:30:54.864Z,3.50
2019-04-10T04:33:55.654Z,3.50
2019-04-10T04:36:56.275Z,3.50
2019-04-10T04:39:58.281Z,3.50
2019-04-10T04:43:00.139Z,3.50
2019-04-10T04:46:01.259Z,3.30
2019-04-10T04:49:02.375Z,3.30
2019-04-10T04:52:03.046Z,3.30
2019-04-10T04:55:03.966Z,3.20
2019-04-10T04:58:04.586Z,3.30
2019-04-10T05:01:06.292Z,3.10
2019-04-10T05:04:06.870Z,3.00
2019-04-10T05:07:08.329Z,3.20
2019-04-10T05:10:09.157Z,3.20
2019-04-10T05:13:10.295Z,3.10
2019-04-10T05:16:10.129Z,3.10
2019-04-10T05:19:18.980Z,3.00
2019-04-10T05:22:27.990Z,3.00
2019-04-10T05:25:36.069Z,3.10
2019-04-10T05:28:46.664Z,3.10
2019-04-10T05:31:56.490Z,3.20
2019-04-10T05:35:08.109Z,3.20
2019-04-10T05:38:15.114Z,3.20
2019-04-10T05:41:24.307Z,3.20
2019-04-10T05:44:33.928Z,3.30
2019-04-10T05:47:42.570Z,3.30
2019-04-10T05:50:57.916Z,3.30
2019-04-10T05:54:00.293Z,3.40
2019-04-10T05:57:08.432Z,3.40
2019-04-10T06:03:45.744Z,3.40
2019-04-10T06:06:55.037Z,3.50
2019-04-10T06:10:06.439Z,3.50
2019-04-10T06:13:13.000Z,3.60
2019-04-10T06:16:22.574Z,3.60
2019-04-10T06:19:25.329Z,3.70
2019-04-10T06:22:26.412Z,3.70
2019-04-10T06:25:28.741Z,3.80
2019-04-10T06:28:30.985Z,3.90
2019-04-10T06:31:32.588Z,3.90
2019-04-10T06:34:34.258Z,4.10
2019-04-10T06:37:35.553Z,4.20
2019-04-10T06:40:37.566Z,4.30
2019-04-10T06:43:39.243Z,4.50
2019-04-10T06:46:40.711Z,4.60
2019-04-10T06:49:42.930Z,4.70
2019-04-10T06:52:43.562Z,4.70
2019-04-10T06:55:44.885Z,4.90
2019-04-10T06:58:46.122Z,5.10
2019-04-10T07:01:52.285Z,5.20
2019-04-10T07:04:55.641Z,5.30
2019-04-10T07:07:57.535Z,5.50
2019-04-10T07:11:02.558Z,5.50
2019-04-10T07:13:58.488Z,5.70
2019-04-10T07:17:05.074Z,5.80
2019-04-10T07:20:03.177Z,5.80
2019-04-10T07:23:04.919Z,5.70
2019-04-10T07:26:06.012Z,5.80
2019-04-10T07:29:06.723Z,5.80
2019-04-10T07:32:09.632Z,6.00
2019-04-10T07:35:10.921Z,6.10
2019-04-10T07:38:13.875Z,6.30
2019-04-10T07:41:21.022Z,6.40
2019-04-10T07:44:17.368Z,6.50
2019-04-10T07:47:18.154Z,6.50
2019-04-10T07:50:18.890Z,6.60
2019-04-10T07:53:19.830Z,6.60
2019-04-10T07:56:20.929Z,6.70
2019-04-10T07:59:21.658Z,6.70
2019-04-10T08:02:23.277Z,6.80
2019-04-10T08:05:24.981Z,7.10
2019-04-10T08:08:25.745Z,7.20
2019-04-10T08:11:26.661Z,7.20
2019-04-10T08:14:27.525Z,7.30
2019-04-10T08:17:28.309Z,7.40
2019-04-10T08:20:29.028Z,7.60
2019-04-10T08:23:30.200Z,7.70
2019-04-10T08:26:30.797Z,7.70
2019-04-10T08:29:32.350Z,7.80
2019-04-10T08:32:40.438Z,7.80
2019-04-10T08:35:36.042Z,7.90
2019-04-10T08:38:37.890Z,7.90
2019-04-10T08:41:41.615Z,8.20
2019-04-10T08:44:42.528Z,8.10
2019-04-10T08:47:44.248Z,8.20
2019-04-10T08:50:46.115Z,8.30
2019-04-10T08:53:46.911Z,8.30
2019-04-10T08:56:47.493Z,8.40
2019-04-10T08:59:48.386Z,8.60
2019-04-10T09:02:48.834Z,8.70
2019-04-10T09:05:49.799Z,8.70
2019-04-10T09:08:50.985Z,8.70
2019-04-10T09:11:51.660Z,8.80
2019-04-10T09:14:52.102Z,8.80
2019-04-10T09:17:53.068Z,8.90
2019-04-10T09:20:55.133Z,9.20
2019-04-10T09:23:57.647Z,9.20
2019-04-10T09:27:00.281Z,9.50
2019-04-10T09:30:00.949Z,9.70
2019-04-10T09:33:05.588Z,9.80
2019-04-10T09:36:04.798Z,9.60
2019-04-10T09:39:07.309Z,9.80
2019-04-10T09:42:08.682Z,9.90
2019-04-10T09:45:09.913Z,9.90
2019-04-10T09:48:10.723Z,10.00
2019-04-10T09:51:11.805Z,10.20
2019-04-10T09:54:13.349Z,10.30
2019-04-10T09:57:15.177Z,10.40
2019-04-10T10:00:16.134Z,10.40
2019-04-10T10:03:17.366Z,10.50
2019-04-10T10:06:27.311Z,10.50
2019-04-10T10:09:21.702Z,10.10
2019-04-10T10:12:23.529Z,10.00
2019-04-10T10:15:25.173Z,10.20
2019-04-10T10:18:25.506Z,10.20
2019-04-10T10:21:34.614Z,10.00
2019-04-10T10:24:43.358Z,9.90
2019-04-10T10:27:51.381Z,9.80
2019-04-10T10:30:59.921Z,10.00
2019-04-10T10:34:10.175Z,10.60
2019-04-10T10:37:18.859Z,10.40
2019-04-10T10:40:27.639Z,10.20
2019-04-10T10:43:36.602Z,10.10
2019-04-10T10:46:44.707Z,10.10
2019-04-10T10:49:52.885Z,10.10
2019-04-10T10:53:02.494Z,10.10
2019-04-10T10:56:10.593Z,10.10
2019-04-10T10:59:19.601Z,10.30
2019-04-10T11:02:28.350Z,10.30
2019-04-10T11:05:37.154Z,10.20
2019-04-10T11:08:46.121Z,10.10
2019-04-10T11:11:54.271Z,10.20
2019-04-10T11:15:03.492Z,10.80
2019-04-10T11:18:12.101Z,11.50
2019-04-10T11:21:20.709Z,12.10
2019-04-10T11:24:31.471Z,12.50
2019-04-10T11:30:54.402Z,11.90
2019-04-10T11:34:03.149Z,12.00
2019-04-10T11:37:23.333Z,11.80
2019-04-10T11:40:23.530Z,12.20
2019-04-10T11:43:33.459Z,12.00
2019-04-10T11:46:41.995Z,11.80
2019-04-10T11:49:51.196Z,12.20
2019-04-10T11:53:01.715Z,13.10
2019-04-10T11:56:05.261Z,13.80
2019-04-10T11:59:05.752Z,14.00
2019-04-10T12:02:08.839Z,14.10
2019-04-10T12:05:14.876Z,13.60
2019-04-10T12:11:18.832Z,12.80
2019-04-10T12:14:18.145Z,12.50
2019-04-10T12:17:20.076Z,12.20
2019-04-10T12:20:20.949Z,12.30
2019-04-10T12:23:21.679Z,12.90
2019-04-10T12:26:23.473Z,13.40
2019-04-10T12:29:24.696Z,13.60
2019-04-10T12:32:25.193Z,13.80
2019-04-10T12:35:26.131Z,14.10
2019-04-10T12:38:27.712Z,14.20
2019-04-10T12:41:28.545Z,13.40
2019-04-10T12:44:29.631Z,13.00
2019-04-10T12:47:30.926Z,13.50
2019-04-10T12:50:32.771Z,14.00
2019-04-10T12:53:33.874Z,14.00
2019-04-10T12:56:34.629Z,13.40
2019-04-10T12:59:35.343Z,13.00
2019-04-10T13:02:36.557Z,12.70
2019-04-10T13:05:37.540Z,13.50
2019-04-10T13:08:52.632Z,13.40
2019-04-10T13:11:40.577Z,13.10
2019-04-10T13:14:48.669Z,13.20
2019-04-10T13:17:57.524Z,13.90
2019-04-10T13:21:06.505Z,14.40
2019-04-10T13:27:28.617Z,13.70
2019-04-10T13:30:46.921Z,13.50
2019-04-10T13:33:48.912Z,13.90
2019-04-10T13:36:57.547Z,14.60
2019-04-10T13:40:05.885Z,15.00
2019-04-10T13:43:13.914Z,15.00
2019-04-10T13:46:21.922Z,15.00
2019-04-10T13:49:30.276Z,15.00
2019-04-10T13:56:01.281Z,15.30
2019-04-10T13:59:01.880Z,15.20
2019-04-10T14:02:02.802Z,15.20
2019-04-10T14:05:05.324Z,15.40
2019-04-10T14:08:06.389Z,15.30
2019-04-10T14:11:07.021Z,15.40
2019-04-10T14:14:08.545Z,15.40
2019-04-10T14:17:09.670Z,15.60
2019-04-10T14:20:11.068Z,15.60
2019-04-10T14:26:48.917Z,15.40
2019-04-10T14:29:49.077Z,15.70
2019-04-10T14:32:51.423Z,15.60
2019-04-10T14:35:52.132Z,15.70
2019-04-10T14:38:52.809Z,16.00
2019-04-10T14:41:53.959Z,15.90
2019-04-10T14:44:55.185Z,15.90
2019-04-10T14:47:56.722Z,15.80
2019-04-10T14:50:58.181Z,16.40
2019-04-10T14:53:59.557Z,16.40
2019-04-10T14:57:00.741Z,16.00
2019-04-10T15:00:01.391Z,16.30
2019-04-10T15:03:02.262Z,16.40
2019-04-10T15:06:03.288Z,16.40
2019-04-10T15:09:04.164Z,16.40
2019-04-10T15:12:05.338Z,16.30
2019-04-10T15:15:06.394Z,16.50
2019-04-10T15:18:07.207Z,16.40
2019-04-10T15:21:08.264Z,16.20
2019-04-10T15:24:09.133Z,16.50
2019-04-10T15:27:11.062Z,16.40
2019-04-10T15:30:12.533Z,16.00
2019-04-10T15:33:14.197Z,16.20
2019-04-10T15:36:15.789Z,16.20
2019-04-10T15:39:17.157Z,16.70
2019-04-10T15:42:17.870Z,16.80
2019-04-10T15:45:19.437Z,16.70
2019-04-10T15:48:20.942Z,16.50
2019-04-10T15:51:22.350Z,16.10
2019-04-10T15:54:23.681Z,16.20
2019-04-10T15:57:24.978Z,16.10
2019-04-10T16:00:25.646Z,16.00
2019-04-10T16:03:26.223Z,16.30
2019-04-10T16:06:26.785Z,16.30
2019-04-10T16:09:27.987Z,16.30
2019-04-10T16:12:30.290Z,16.10
2019-04-10T16:15:35.378Z,16.10
2019-04-10T16:18:36.731Z,16.20
2019-04-10T16:21:38.028Z,16.40
2019-04-10T16:24:38.839Z,16.50
2019-04-10T16:27:41.142Z,16.20
2019-04-10T16:30:43.215Z,16.40
2019-04-10T16:33:44.160Z,15.90
2019-04-10T16:36:45.819Z,16.20
2019-04-10T16:39:57.850Z,15.90
2019-04-10T16:42:50.807Z,16.10
2019-04-10T16:45:51.613Z,16.10
2019-04-10T16:48:52.789Z,16.00
2019-04-10T16:51:53.469Z,16.10
2019-04-10T16:54:54.142Z,16.20
2019-04-10T16:57:55.691Z,15.80
2019-04-10T17:00:57.939Z,15.90
2019-04-10T17:03:58.737Z,15.90
2019-04-10T17:06:59.592Z,16.10
2019-04-10T17:10:12.800Z,15.90
2019-04-10T17:13:04.463Z,15.90
2019-04-10T17:16:05.585Z,16.20
2019-04-10T17:19:07.604Z,16.00
2019-04-10T17:22:08.953Z,15.90
2019-04-10T17:25:09.678Z,15.60
2019-04-10T17:28:10.359Z,15.50
2019-04-10T17:31:11.933Z,15.40
2019-04-10T17:34:13.170Z,15.10
2019-04-10T17:37:14.351Z,14.70
2019-04-10T17:40:28.418Z,14.10
2019-04-10T17:43:19.018Z,13.90
2019-04-10T17:46:21.042Z,13.60
2019-04-10T17:49:21.826Z,13.40
2019-04-10T17:52:22.945Z,13.30
2019-04-10T17:55:23.664Z,13.00
2019-04-10T17:58:25.399Z,12.80
2019-04-10T18:01:27.161Z,12.60
2019-04-10T18:04:29.709Z,12.60
2019-04-10T18:07:30.394Z,12.50
2019-04-10T18:10:43.577Z,12.30
2019-04-10T18:13:34.213Z,12.30
2019-04-10T18:16:36.088Z,12.10
2019-04-10T18:19:38.515Z,12.20
2019-04-10T18:22:39.231Z,12.00
2019-04-10T18:25:40.227Z,11.80
2019-04-10T18:28:41.494Z,11.70
2019-04-10T18:31:43.098Z,11.50
2019-04-10T18:34:44.576Z,11.50
2019-04-10T18:37:46.668Z,11.30
2019-04-10T18:40:58.211Z,11.30
2019-04-10T18:43:51.174Z,11.10
2019-04-10T18:46:52.259Z,11.00
2019-04-10T18:49:53.965Z,10.90
2019-04-10T18:52:55.967Z,10.90
2019-04-10T18:55:56.978Z,10.80
2019-04-10T18:59:16.670Z,10.70
2019-04-10T19:02:37.023Z,10.60
2019-04-10T19:05:40.526Z,10.50
2019-04-10T19:08:41.578Z,10.30
2019-04-10T19:11:42.229Z,10.40
2019-04-10T19:14:43.015Z,10.30
2019-04-10T19:17:43.813Z,10.20
2019-04-10T19:20:44.641Z,10.20
2019-04-10T19:23:45.708Z,10.00
2019-04-10T19:26:47.426Z,10.00
2019-04-10T19:29:48.752Z,10.00
2019-04-10T19:32:49.916Z,9.90
2019-04-10T19:35:50.980Z,9.80
2019-04-10T19:38:51.743Z,9.80
2019-04-10T19:41:53.870Z,9.50
2019-04-10T19:44:55.301Z,9.60
2019-04-10T19:47:56.992Z,9.60
2019-04-10T19:50:58.130Z,9.60
2019-04-10T19:54:00.020Z,9.40
2019-04-10T19:57:01.822Z,9.30
2019-04-10T20:00:02.536Z,9.30
2019-04-10T20:03:03.647Z,9.20
2019-04-10T20:06:04.226Z,9.20
2019-04-10T20:09:06.333Z,9.20
2019-04-10T20:12:08.480Z,9.20
2019-04-10T20:15:10.044Z,9.10
2019-04-10T20:18:11.209Z,9.00
2019-04-10T20:21:12.120Z,9.10
2019-04-10T20:24:12.929Z,8.90
2019-04-10T20:27:14.110Z,8.90
2019-04-10T20:30:15.316Z,8.70
2019-04-10T20:33:14.658Z,8.80
2019-04-10T20:36:22.836Z,8.80
2019-04-10T20:39:33.570Z,8.70
2019-04-10T20:42:42.624Z,8.70
2019-04-10T20:45:52.082Z,8.50
2019-04-10T20:49:00.587Z,8.60
2019-04-10T20:52:10.433Z,8.50
2019-04-10T20:55:13.201Z,8.50
2019-04-10T20:58:14.106Z,8.40
2019-04-10T21:01:15.129Z,8.40
2019-04-10T21:04:16.836Z,8.20
2019-04-10T21:07:19.146Z,8.30
2019-04-10T21:10:19.770Z,8.10
2019-04-10T21:13:21.934Z,8.00
2019-04-10T21:16:23.154Z,8.00
2019-04-10T21:19:24.837Z,8.00
2019-04-10T21:22:26.485Z,7.90
2019-04-10T21:25:27.434Z,7.80
2019-04-10T21:28:26.621Z,7.90
2019-04-10T21:31:53.814Z,7.80
2019-04-10T21:38:30.560Z,7.80
2019-04-10T21:41:38.996Z,7.60
2019-04-10T21:44:49.228Z,7.70
2019-04-10T21:47:58.012Z,7.70
2019-04-10T21:51:06.795Z,7.50
2019-04-10T21:54:09.758Z,7.40
2019-04-10T21:57:10.705Z,7.60
2019-04-10T22:00:12.253Z,7.50
2019-04-10T22:03:13.501Z,7.40
2019-04-10T22:06:33.634Z,7.40
2019-04-10T22:13:05.911Z,7.30
2019-04-10T22:16:09.359Z,7.20
2019-04-10T22:19:10.258Z,7.20
2019-04-10T22:22:11.422Z,7.20
2019-04-10T22:25:13.582Z,7.10
2019-04-10T22:28:14.961Z,7.20
2019-04-10T22:31:16.238Z,7.10
2019-04-10T22:34:17.169Z,7.20
2019-04-10T22:37:17.766Z,7.10
2019-04-10T22:40:19.346Z,7.10
2019-04-10T22:43:20.324Z,7.00
2019-04-10T22:46:21.366Z,6.90
2019-04-10T22:49:22.561Z,6.90
2019-04-10T22:52:24.034Z,6.90
2019-04-10T22:55:25.929Z,7.00
2019-04-10T22:58:26.793Z,6.90
2019-04-10T23:01:27.307Z,6.70
2019-04-10T23:04:28.670Z,6.80
2019-04-10T23:07:30.202Z,6.70
2019-04-10T23:10:30.983Z,6.60
2019-04-10T23:13:32.073Z,6.60
2019-04-10T23:16:32.905Z,6.60
2019-04-10T23:19:34.218Z,6.60
2019-04-10T23:22:35.554Z,6.60
2019-04-10T23:25:36.545Z,6.60
2019-04-10T23:28:37.891Z,6.50
2019-04-10T23:31:39.230Z,6.50
2019-04-10T23:34:40.924Z,6.40
2019-04-10T23:37:42.383Z,6.40
2019-04-10T23:40:43.253Z,6.40
2019-04-10T23:43:44.019Z,6.40
2019-04-10T23:46:45.427Z,6.20
2019-04-10T23:49:45.997Z,6.20
2019-04-10T23:52:47.766Z,6.10
2019-04-10T23:55:48.445Z,6.10
2019-04-10T23:58:49.229Z,6.00
